createdAt,value
2022-09-28T00:00:59.262Z,2.90
2022-09-28T00:03:25.707Z,2.80
2022-09-28T00:05:52.097Z,3.10
2022-09-28T00:08:18.653Z,3.37
2022-09-28T00:10:45.683Z,3.63
2022-09-28T00:13:12.071Z,3.60
2022-09-28T00:15:38.468Z,3.50
2022-09-28T00:18:05.292Z,2.93
2022-09-28T00:20:31.729Z,3.00
2022-09-28T00:22:58.155Z,2.60
2022-09-28T00:25:24.952Z,3.20
2022-09-28T00:27:51.419Z,3.20
2022-09-28T00:30:17.839Z,3.10
2022-09-28T00:32:44.274Z,3.17
2022-09-28T00:35:11.004Z,2.60
2022-09-28T00:37:37.480Z,2.53
2022-09-28T00:40:04.317Z,2.70
2022-09-28T00:42:30.825Z,2.40
2022-09-28T00:44:58.136Z,2.97
2022-09-28T00:47:33.909Z,3.00
2022-09-28T00:50:05.328Z,3.07
2022-09-28T00:52:41.669Z,2.60
2022-09-28T00:55:15.891Z,2.33
2022-09-28T00:57:48.084Z,3.03
2022-09-28T01:00:15.328Z,2.90
2022-09-28T01:02:43.368Z,2.67
2022-09-28T01:05:11.205Z,3.00
2022-09-28T01:07:38.361Z,3.23
2022-09-28T01:10:07.169Z,3.30
2022-09-28T01:12:33.647Z,3.30
2022-09-28T01:15:01.848Z,3.63
2022-09-28T01:17:38.509Z,3.67
2022-09-28T01:20:05.824Z,3.60
2022-09-28T01:22:50.383Z,3.80
2022-09-28T01:25:44.920Z,4.37
2022-09-28T01:28:17.169Z,4.40
2022-09-28T01:31:25.301Z,5.03
2022-09-28T01:33:59.659Z,5.27
2022-09-28T01:36:34.948Z,5.67
2022-09-28T01:39:08.423Z,5.60
2022-09-28T01:41:38.053Z,5.77
2022-09-28T01:44:08.610Z,5.97
2022-09-28T01:46:48.350Z,6.20
2022-09-28T01:49:22.891Z,7.47
2022-09-28T01:52:01.376Z,8.13
2022-09-28T01:54:44.587Z,9.10
2022-09-28T01:57:27.142Z,9.33
2022-09-28T02:00:09.070Z,9.93
2022-09-28T02:02:58.922Z,11.90
2022-09-28T02:05:38.681Z,12.90
2022-09-28T02:08:09.707Z,12.90
2022-09-28T02:11:13.214Z,12.77
2022-09-28T02:13:48.586Z,13.30
2022-09-28T02:16:15.100Z,13.23
2022-09-28T02:18:42.039Z,13.27
2022-09-28T02:21:17.763Z,13.70
2022-09-28T02:23:56.356Z,13.33
2022-09-28T02:26:29.521Z,13.17
2022-09-28T02:28:55.958Z,12.00
2022-09-28T02:31:22.491Z,12.97
2022-09-28T02:33:51.216Z,12.30
2022-09-28T02:36:17.712Z,11.57
2022-09-28T02:38:44.376Z,11.60
2022-09-28T02:41:35.191Z,11.00
2022-09-28T02:44:26.463Z,10.13
2022-09-28T02:47:43.409Z,10.97
2022-09-28T02:50:29.483Z,10.00
2022-09-28T02:53:31.452Z,10.87
2022-09-28T02:56:22.669Z,9.47
2022-09-28T02:59:10.935Z,8.90
2022-09-28T03:01:47.854Z,9.67
2022-09-28T03:04:26.479Z,8.70
2022-09-28T03:06:59.261Z,8.80
2022-09-28T03:09:40.047Z,9.37
2022-09-28T03:12:13.688Z,9.90
2022-09-28T03:14:40.145Z,9.93
2022-09-28T03:17:06.604Z,9.33
2022-09-28T03:19:34.599Z,10.77
2022-09-28T03:22:01.669Z,10.43
2022-09-28T03:24:28.114Z,10.80
2022-09-28T03:26:54.837Z,11.47
2022-09-28T03:29:21.252Z,13.20
2022-09-28T03:31:49.059Z,12.70
2022-09-28T03:34:15.722Z,13.00
2022-09-28T03:36:42.937Z,12.20
2022-09-28T03:39:09.344Z,13.50
2022-09-28T03:41:35.742Z,13.73
2022-09-28T03:44:02.564Z,15.83
2022-09-28T03:46:28.998Z,14.90
2022-09-28T03:48:57.140Z,15.50
2022-09-28T03:51:23.721Z,14.83
2022-09-28T03:53:50.104Z,16.77
2022-09-28T03:56:17.435Z,16.27
2022-09-28T03:58:43.864Z,14.27
2022-09-28T04:01:16.642Z,15.40
2022-09-28T04:03:43.728Z,16.10
2022-09-28T04:06:10.694Z,16.30
2022-09-28T04:08:37.163Z,16.37
2022-09-28T04:11:03.618Z,17.40
2022-09-28T04:13:30.529Z,15.97
2022-09-28T04:15:59.088Z,15.63
2022-09-28T04:18:26.101Z,15.80
2022-09-28T04:21:07.023Z,14.60
2022-09-28T04:23:38.539Z,14.60
2022-09-28T04:26:07.540Z,14.80
2022-09-28T04:28:52.723Z,14.60
2022-09-28T04:31:23.646Z,14.27
2022-09-28T04:33:50.204Z,16.13
2022-09-28T04:36:17.566Z,14.57
2022-09-28T04:38:59.351Z,14.03
2022-09-28T04:41:26.492Z,16.00
2022-09-28T04:43:53.140Z,15.67
2022-09-28T04:46:20.180Z,17.47
2022-09-28T04:48:46.692Z,16.50
2022-09-28T04:51:13.199Z,15.07
2022-09-28T04:53:39.760Z,16.70
2022-09-28T04:56:09.985Z,15.87
2022-09-28T04:58:36.493Z,16.80
2022-09-28T05:01:06.860Z,16.53
2022-09-28T05:03:34.036Z,16.17
2022-09-28T05:06:01.542Z,16.60
2022-09-28T05:08:28.759Z,16.73
2022-09-28T05:11:14.641Z,16.37
2022-09-28T05:13:45.220Z,16.03
2022-09-28T05:16:13.503Z,16.63
2022-09-28T05:18:40.000Z,15.57
2022-09-28T05:21:14.348Z,17.73
2022-09-28T05:23:45.443Z,15.47
2022-09-28T05:26:11.888Z,15.77
2022-09-28T05:28:38.300Z,17.10
2022-09-28T05:31:05.648Z,16.17
2022-09-28T05:33:33.105Z,16.20
2022-09-28T05:36:01.614Z,16.50
2022-09-28T05:38:28.629Z,15.87
2022-09-28T05:40:55.123Z,17.13
2022-09-28T05:43:22.006Z,17.00
2022-09-28T05:45:52.897Z,16.73
2022-09-28T05:48:21.783Z,16.37
2022-09-28T05:50:52.518Z,16.50
2022-09-28T05:53:19.613Z,16.07
2022-09-28T05:55:46.202Z,14.50
2022-09-28T05:58:12.670Z,14.83
2022-09-28T06:00:39.124Z,15.13
2022-09-28T06:03:09.474Z,15.00
2022-09-28T06:05:36.996Z,14.10
2022-09-28T06:08:05.269Z,14.97
2022-09-28T06:10:32.977Z,14.10
2022-09-28T06:12:59.769Z,13.20
2022-09-28T06:15:28.956Z,14.23
2022-09-28T06:18:02.810Z,14.70
2022-09-28T06:20:31.478Z,16.10
2022-09-28T06:22:58.123Z,14.63
2022-09-28T06:25:27.567Z,13.37
2022-09-28T06:28:04.932Z,13.80
2022-09-28T06:30:34.412Z,12.27
2022-09-28T06:33:01.957Z,12.07
2022-09-28T06:35:30.408Z,12.87
2022-09-28T06:37:58.179Z,12.10
2022-09-28T06:40:25.113Z,11.23
2022-09-28T06:42:56.966Z,11.10
2022-09-28T06:45:25.292Z,10.40
2022-09-28T06:47:57.436Z,10.10
2022-09-28T06:50:37.385Z,10.13
2022-09-28T06:53:06.757Z,9.80
2022-09-28T06:55:33.517Z,9.30
2022-09-28T06:58:02.333Z,10.80
2022-09-28T07:00:32.833Z,8.73
2022-09-28T07:03:00.139Z,10.00
2022-09-28T07:05:29.936Z,9.60
2022-09-28T07:07:57.273Z,10.43
2022-09-28T07:10:28.365Z,10.40
2022-09-28T07:12:56.195Z,11.30
2022-09-28T07:15:23.399Z,12.27
2022-09-28T07:18:02.693Z,13.17
2022-09-28T07:20:30.347Z,12.27
2022-09-28T07:23:14.239Z,15.43
2022-09-28T07:25:47.795Z,21.20
2022-09-28T07:28:15.162Z,21.10
2022-09-28T07:30:42.230Z,21.53
2022-09-28T07:33:12.574Z,19.40
2022-09-28T07:35:39.028Z,19.27
2022-09-28T07:38:07.380Z,14.57
2022-09-28T07:40:54.441Z,13.87
2022-09-28T07:43:22.196Z,13.27
2022-09-28T07:45:52.910Z,11.40
2022-09-28T07:48:19.993Z,9.00
2022-09-28T07:50:51.736Z,10.73
2022-09-28T07:53:19.345Z,8.80
2022-09-28T07:55:52.689Z,7.00
2022-09-28T07:58:20.681Z,7.70
2022-09-28T08:00:48.405Z,7.90
2022-09-28T08:03:16.842Z,7.97
2022-09-28T08:05:43.433Z,7.13
2022-09-28T08:08:19.558Z,6.63
2022-09-28T08:10:50.919Z,5.80
2022-09-28T08:13:18.248Z,7.03
2022-09-28T08:15:47.211Z,6.27
2022-09-28T08:18:37.095Z,6.10
2022-09-28T08:21:25.424Z,6.80
2022-09-28T08:23:52.975Z,8.37
2022-09-28T08:26:19.524Z,7.60
2022-09-28T08:28:50.238Z,6.70
2022-09-28T08:31:16.983Z,6.17
2022-09-28T08:33:43.427Z,6.70
2022-09-28T08:36:10.354Z,7.30
2022-09-28T08:38:36.795Z,7.60
2022-09-28T08:41:12.105Z,8.87
2022-09-28T08:43:45.923Z,9.60
2022-09-28T08:46:14.963Z,9.77
2022-09-28T08:49:25.441Z,11.00
2022-09-28T08:51:58.902Z,10.80
2022-09-28T08:54:48.792Z,10.90
2022-09-28T08:57:21.901Z,9.07
2022-09-28T08:59:56.999Z,8.20
2022-09-28T09:02:36.758Z,8.77
2022-09-28T09:05:08.358Z,9.10
2022-09-28T09:08:16.191Z,8.50
2022-09-28T09:10:45.355Z,8.10
2022-09-28T09:13:34.814Z,9.17
2022-09-28T09:16:11.779Z,8.60
2022-09-28T09:18:49.226Z,8.90
2022-09-28T09:21:18.849Z,9.30
2022-09-28T09:23:56.764Z,8.57
2022-09-28T09:26:39.249Z,8.67
2022-09-28T09:29:38.459Z,9.73
2022-09-28T09:32:36.906Z,8.33
2022-09-28T09:35:12.354Z,7.47
2022-09-28T09:37:58.509Z,6.73
2022-09-28T09:40:43.166Z,7.00
2022-09-28T09:43:22.249Z,6.10
2022-09-28T09:46:11.825Z,6.03
2022-09-28T09:48:51.936Z,6.33
2022-09-28T09:51:43.500Z,6.90
2022-09-28T09:54:19.946Z,5.33
2022-09-28T09:56:56.747Z,5.10
2022-09-28T09:59:27.689Z,4.77
2022-09-28T10:01:55.884Z,4.73
2022-09-28T10:04:27.616Z,4.60
2022-09-28T10:07:00.635Z,5.83
2022-09-28T10:09:32.228Z,4.63
2022-09-28T10:11:58.693Z,4.70
2022-09-28T10:14:25.607Z,3.70
2022-09-28T10:16:55.534Z,3.70
2022-09-28T10:19:33.186Z,3.20
2022-09-28T10:22:03.135Z,2.77
2022-09-28T10:24:41.304Z,3.13
2022-09-28T10:27:14.107Z,2.97
2022-09-28T10:29:49.597Z,3.33
2022-09-28T10:32:46.022Z,3.60
2022-09-28T10:35:18.599Z,3.27
2022-09-28T10:38:06.682Z,3.20
2022-09-28T10:40:44.752Z,3.60
2022-09-28T10:43:30.071Z,3.47
2022-09-28T10:46:23.474Z,3.17
2022-09-28T10:48:49.923Z,3.67
2022-09-28T10:51:17.079Z,4.50
2022-09-28T10:53:58.830Z,2.77
2022-09-28T10:56:28.372Z,2.97
2022-09-28T10:58:54.763Z,2.43
2022-09-28T11:01:29.112Z,3.50
2022-09-28T11:03:59.695Z,3.77
2022-09-28T11:06:38.175Z,3.80
2022-09-28T11:09:21.258Z,2.77
2022-09-28T11:11:47.817Z,2.63
2022-09-28T11:14:41.118Z,2.00
2022-09-28T11:17:17.956Z,2.30
2022-09-28T11:19:45.160Z,2.83
2022-09-28T11:22:41.873Z,2.50
2022-09-28T11:25:16.447Z,2.57
2022-09-28T11:27:55.027Z,2.80
2022-09-28T11:30:27.739Z,2.73
2022-09-28T11:33:04.841Z,2.63
2022-09-28T11:35:53.942Z,3.17
2022-09-28T11:38:41.013Z,2.23
2022-09-28T11:41:13.560Z,2.10
2022-09-28T11:44:28.239Z,2.33
2022-09-28T11:47:14.167Z,2.67
2022-09-28T11:50:22.956Z,2.90
2022-09-28T11:53:09.664Z,2.70
2022-09-28T11:55:44.015Z,2.60
2022-09-28T11:58:35.114Z,3.10
2022-09-28T12:01:19.037Z,3.03
2022-09-28T12:03:51.849Z,2.37
2022-09-28T12:06:23.472Z,2.37
2022-09-28T12:08:55.555Z,2.60
2022-09-28T12:11:35.906Z,2.10
2022-09-28T12:14:06.740Z,2.10
2022-09-28T12:19:41.204Z,2.27
2022-09-28T12:22:34.729Z,3.10
2022-09-28T12:25:03.068Z,2.40
2022-09-28T12:27:58.875Z,3.97
2022-09-28T12:30:27.389Z,2.10
2022-09-28T12:33:17.555Z,2.57
2022-09-28T12:36:03.858Z,3.57
2022-09-28T12:39:08.745Z,2.90
2022-09-28T12:41:41.893Z,2.70
2022-09-28T12:44:41.730Z,2.60
2022-09-28T12:47:37.289Z,2.60
2022-09-28T12:53:19.944Z,2.50
2022-09-28T12:55:56.439Z,3.50
2022-09-28T12:58:41.853Z,3.00
2022-09-28T13:01:29.735Z,3.10
2022-09-28T13:04:11.498Z,2.70
2022-09-28T13:06:58.214Z,2.10
2022-09-28T13:09:27.447Z,2.13
2022-09-28T13:12:22.395Z,2.10
2022-09-28T13:15:03.959Z,1.87
2022-09-28T13:17:42.544Z,2.13
2022-09-28T13:20:22.418Z,2.00
2022-09-28T13:23:07.516Z,1.70
2022-09-28T13:25:36.351Z,2.00
2022-09-28T13:28:05.332Z,1.70
2022-09-28T13:30:39.003Z,1.50
2022-09-28T13:33:08.167Z,1.83
2022-09-28T13:35:35.029Z,1.70
2022-09-28T13:38:27.874Z,1.67
2022-09-28T13:41:11.947Z,1.90
2022-09-28T13:43:58.488Z,2.20
2022-09-28T13:46:39.496Z,1.43
2022-09-28T13:49:30.204Z,1.73
2022-09-28T13:52:05.815Z,1.90
2022-09-28T13:54:44.352Z,1.93
2022-09-28T13:57:21.332Z,1.90
2022-09-28T14:00:16.048Z,1.50
2022-09-28T14:02:47.869Z,1.27
2022-09-28T14:05:23.496Z,1.43
2022-09-28T14:08:08.721Z,1.50
2022-09-28T14:10:55.828Z,1.90
2022-09-28T14:13:40.732Z,1.50
2022-09-28T14:16:24.684Z,1.63
2022-09-28T14:19:03.485Z,1.37
2022-09-28T14:21:49.753Z,1.60
2022-09-28T14:24:31.489Z,1.60
2022-09-28T14:27:22.543Z,1.67
2022-09-28T14:30:11.618Z,1.40
2022-09-28T14:32:47.638Z,1.60
2022-09-28T14:35:23.973Z,1.87
2022-09-28T14:38:13.798Z,1.50
2022-09-28T14:41:09.958Z,1.73
2022-09-28T14:43:43.581Z,1.60
2022-09-28T14:46:10.871Z,3.67
2022-09-28T14:48:57.406Z,1.90
2022-09-28T14:51:26.961Z,1.83
2022-09-28T14:53:55.284Z,1.40
2022-09-28T14:56:22.315Z,1.63
2022-09-28T14:58:54.835Z,1.47
2022-09-28T15:01:24.624Z,1.60
2022-09-28T15:04:04.470Z,1.33
2022-09-28T15:06:51.757Z,1.40
2022-09-28T15:09:35.929Z,1.40
2022-09-28T15:12:15.059Z,1.30
2022-09-28T15:14:53.447Z,1.20
2022-09-28T15:17:23.351Z,1.80
2022-09-28T15:20:26.442Z,1.50
2022-09-28T15:22:58.436Z,2.60
2022-09-28T15:25:30.400Z,1.47
2022-09-28T15:28:06.491Z,1.60
2022-09-28T15:30:35.100Z,1.27
2022-09-28T15:33:22.883Z,1.63
2022-09-28T15:36:03.570Z,1.23
2022-09-28T15:38:32.379Z,1.30
2022-09-28T15:41:02.748Z,2.20
2022-09-28T15:43:34.794Z,1.87
2022-09-28T15:46:27.955Z,1.43
2022-09-28T15:48:57.198Z,1.70
2022-09-28T15:51:24.652Z,1.37
2022-09-28T15:54:19.381Z,1.60
2022-09-28T15:57:02.710Z,1.30
2022-09-28T15:59:31.937Z,1.23
2022-09-28T16:02:09.453Z,1.70
2022-09-28T16:04:55.694Z,1.60
2022-09-28T16:07:32.154Z,1.93
2022-09-28T16:10:12.790Z,1.60
2022-09-28T16:12:56.155Z,2.73
2022-09-28T16:15:25.635Z,2.70
2022-09-28T16:18:00.603Z,1.50
2022-09-28T16:20:34.082Z,1.80
2022-09-28T16:23:08.276Z,1.97
2022-09-28T16:25:39.000Z,2.40
2022-09-28T16:28:06.711Z,2.10
2022-09-28T16:30:34.529Z,1.93
2022-09-28T16:33:02.378Z,1.90
2022-09-28T16:35:33.133Z,1.50
2022-09-28T16:38:00.951Z,1.97
2022-09-28T16:40:27.923Z,1.77
2022-09-28T16:42:58.454Z,2.20
2022-09-28T16:45:25.023Z,1.93
2022-09-28T16:47:52.368Z,1.90
2022-09-28T16:50:22.967Z,1.90
2022-09-28T16:53:31.137Z,1.90
2022-09-28T16:55:58.280Z,1.90
2022-09-28T16:58:25.240Z,2.27
2022-09-28T17:00:54.009Z,2.43
2022-09-28T17:03:23.363Z,2.40
2022-09-28T17:05:50.898Z,2.10
2022-09-28T17:08:19.612Z,2.63
2022-09-28T17:13:40.863Z,2.40
2022-09-28T17:16:32.519Z,2.43
2022-09-28T17:19:03.545Z,2.97
2022-09-28T17:21:30.983Z,2.50
2022-09-28T17:23:57.460Z,2.60
2022-09-28T17:26:31.558Z,2.50
2022-09-28T17:28:59.393Z,2.57
2022-09-28T17:31:26.436Z,2.80
2022-09-28T17:33:52.905Z,2.70
2022-09-28T17:36:19.532Z,2.67
2022-09-28T17:38:47.749Z,2.63
2022-09-28T17:41:20.198Z,3.00
2022-09-28T17:43:47.056Z,3.57
2022-09-28T17:46:29.939Z,3.93
2022-09-28T17:49:00.888Z,4.30
2022-09-28T17:51:32.471Z,3.97
2022-09-28T17:54:01.293Z,3.40
2022-09-28T17:56:32.106Z,3.40
2022-09-28T17:59:01.682Z,3.17
2022-09-28T18:01:33.698Z,3.50
2022-09-28T18:04:02.224Z,3.50
2022-09-28T18:06:28.944Z,3.70
2022-09-28T18:08:55.456Z,3.63
2022-09-28T18:11:22.527Z,3.67
2022-09-28T18:13:49.051Z,4.30
2022-09-28T18:16:15.879Z,6.67
2022-09-28T18:18:43.871Z,5.10
2022-09-28T18:21:10.497Z,5.57
2022-09-28T18:23:38.132Z,9.10
2022-09-28T18:26:10.410Z,8.03
2022-09-28T18:28:37.438Z,5.90
2022-09-28T18:31:13.793Z,5.80
2022-09-28T18:33:40.724Z,8.77
2022-09-28T18:36:08.171Z,13.07
2022-09-28T18:38:38.261Z,9.37
2022-09-28T18:41:10.078Z,9.13
2022-09-28T18:43:37.061Z,7.20
2022-09-28T18:46:11.358Z,7.63
2022-09-28T18:48:40.510Z,7.80
2022-09-28T18:51:12.492Z,8.70
2022-09-28T18:53:39.913Z,8.00
2022-09-28T18:56:12.061Z,7.97
2022-09-28T18:58:40.355Z,6.60
2022-09-28T19:01:31.701Z,7.10
2022-09-28T19:04:03.555Z,6.30
2022-09-28T19:06:31.800Z,6.33
2022-09-28T19:08:58.950Z,6.63
2022-09-28T19:11:26.135Z,6.20
2022-09-28T19:13:54.501Z,6.23
2022-09-28T19:16:24.514Z,6.97
2022-09-28T19:18:52.378Z,6.17
2022-09-28T19:21:20.069Z,6.60
2022-09-28T19:23:49.850Z,6.90
2022-09-28T19:26:22.783Z,7.50
2022-09-28T19:28:49.604Z,7.10
2022-09-28T19:31:16.875Z,6.73
2022-09-28T19:33:45.776Z,7.90
2022-09-28T19:36:18.348Z,7.83
2022-09-28T19:38:45.314Z,6.87
2022-09-28T19:41:43.828Z,7.27
2022-09-28T19:44:15.716Z,6.77
2022-09-28T19:46:42.553Z,7.20
2022-09-28T19:49:14.888Z,7.67
2022-09-28T19:51:51.650Z,8.00
2022-09-28T19:54:36.356Z,8.50
2022-09-28T19:57:08.584Z,7.17
2022-09-28T19:59:37.097Z,8.40
2022-09-28T20:02:08.253Z,7.53
2022-09-28T20:04:34.789Z,7.50
2022-09-28T20:07:01.835Z,8.97
2022-09-28T20:09:28.474Z,9.03
2022-09-28T20:11:55.042Z,9.90
2022-09-28T20:14:23.531Z,10.73
2022-09-28T20:16:53.250Z,11.90
2022-09-28T20:19:21.641Z,12.10
2022-09-28T20:21:48.484Z,10.10
2022-09-28T20:24:18.724Z,12.50
2022-09-28T20:26:45.867Z,10.63
2022-09-28T20:29:13.035Z,8.90
2022-09-28T20:31:39.488Z,8.80
2022-09-28T20:34:06.825Z,8.70
2022-09-28T20:36:33.816Z,7.87
2022-09-28T20:39:04.185Z,11.37
2022-09-28T20:41:35.609Z,13.70
2022-09-28T20:44:05.810Z,13.60
2022-09-28T20:46:33.539Z,12.77
2022-09-28T20:49:00.227Z,12.10
2022-09-28T20:51:26.843Z,15.33
2022-09-28T20:53:58.770Z,12.73
2022-09-28T20:56:27.748Z,11.40
2022-09-28T20:58:55.374Z,11.60
2022-09-28T21:01:24.084Z,11.37
2022-09-28T21:03:58.819Z,11.00
2022-09-28T21:06:30.268Z,11.03
2022-09-28T21:08:57.149Z,10.23
2022-09-28T21:11:25.570Z,8.87
2022-09-28T21:13:54.047Z,10.10
2022-09-28T21:16:20.717Z,9.20
2022-09-28T21:18:47.708Z,8.27
2022-09-28T21:21:17.077Z,8.50
2022-09-28T21:23:46.310Z,8.77
2022-09-28T21:26:24.627Z,7.63
2022-09-28T21:28:56.095Z,8.80
2022-09-28T21:31:28.518Z,12.23
2022-09-28T21:33:55.558Z,9.20
2022-09-28T21:36:21.961Z,8.80
2022-09-28T21:38:49.294Z,9.30
2022-09-28T21:41:15.870Z,9.23
2022-09-28T21:43:42.340Z,9.20
2022-09-28T21:46:10.648Z,9.53
2022-09-28T21:48:37.083Z,9.03
2022-09-28T21:51:09.058Z,9.40
2022-09-28T21:53:37.312Z,8.27
2022-09-28T21:56:06.405Z,8.77
2022-09-28T21:58:34.545Z,10.13
2022-09-28T22:01:03.659Z,8.80
2022-09-28T22:03:31.652Z,10.37
2022-09-28T22:05:58.304Z,10.07
2022-09-28T22:08:25.625Z,9.87
2022-09-28T22:11:13.489Z,9.53
2022-09-28T22:13:45.522Z,9.10
2022-09-28T22:16:14.382Z,9.53
2022-09-28T22:18:41.199Z,8.83
2022-09-28T22:21:10.653Z,9.60
2022-09-28T22:23:38.188Z,8.73
2022-09-28T22:26:20.065Z,8.10
2022-09-28T22:28:49.388Z,8.53
2022-09-28T22:31:17.711Z,8.33
2022-09-28T22:33:44.180Z,9.00
2022-09-28T22:36:11.046Z,7.70
2022-09-28T22:38:37.702Z,7.43
2022-09-28T22:41:04.189Z,8.37
2022-09-28T22:43:30.976Z,8.67
2022-09-28T22:46:20.998Z,7.97
2022-09-28T22:48:49.093Z,8.50
2022-09-28T22:51:15.830Z,7.90
2022-09-28T22:53:42.515Z,7.60
2022-09-28T22:56:09.467Z,8.03
2022-09-28T22:58:37.915Z,8.37
2022-09-28T23:01:17.161Z,8.47
2022-09-28T23:03:44.752Z,8.27
2022-09-28T23:06:13.694Z,9.20
2022-09-28T23:08:40.309Z,11.40
2022-09-28T23:11:06.808Z,9.20
2022-09-28T23:13:33.564Z,8.10
2022-09-28T23:16:02.305Z,7.97
2022-09-28T23:18:30.802Z,8.10
2022-09-28T23:20:59.433Z,9.10
2022-09-28T23:23:26.411Z,8.07
2022-09-28T23:25:53.767Z,8.00
2022-09-28T23:28:22.824Z,9.20
2022-09-28T23:30:49.681Z,8.20
2022-09-28T23:33:17.590Z,8.80
2022-09-28T23:35:44.698Z,8.93
2022-09-28T23:38:17.794Z,8.53
2022-09-28T23:40:47.701Z,8.93
2022-09-28T23:43:14.486Z,8.73
2022-09-28T23:45:42.774Z,8.90
2022-09-28T23:48:09.211Z,7.87
2022-09-28T23:50:35.606Z,8.50
2022-09-28T23:53:01.980Z,8.20
2022-09-28T23:55:29.045Z,8.90
2022-09-28T23:57:56.612Z,8.97
